sensor_id;sensor_type;location;lat;lon;timestamp;P1;durP1;ratioP1;P2;durP2;ratioP2
30380;SDS011;17169;50.966;11.038;2022-12-18T00:01:16;19.35;;;11.00;;
30380;SDS011;17169;50.966;11.038;2022-12-18T00:04:21;19.08;;;9.60;;
30380;SDS011;17169;50.966;11.038;2022-12-18T00:07:25;19.23;;;9.52;;
30380;SDS011;17169;50.966;11.038;2022-12-18T00:10:27;21.08;;;9.70;;
30380;SDS011;17169;50.966;11.038;2022-12-18T00:13:31;18.38;;;9.13;;
30380;SDS011;17169;50.966;11.038;2022-12-18T00:16:33;22.55;;;9.00;;
30380;SDS011;17169;50.966;11.038;2022-12-18T00:19:37;14.77;;;8.25;;
30380;SDS011;17169;50.966;11.038;2022-12-18T00:22:39;19.88;;;9.32;;
30380;SDS011;17169;50.966;11.038;2022-12-18T00:25:42;18.70;;;9.13;;
30380;SDS011;17169;50.966;11.038;2022-12-18T00:28:45;19.45;;;8.32;;
30380;SDS011;17169;50.966;11.038;2022-12-18T00:31:48;18.08;;;9.32;;
30380;SDS011;17169;50.966;11.038;2022-12-18T00:34:50;17.35;;;9.43;;
30380;SDS011;17169;50.966;11.038;2022-12-18T00:37:53;17.63;;;8.77;;
30380;SDS011;17169;50.966;11.038;2022-12-18T00:40:55;18.23;;;8.85;;
30380;SDS011;17169;50.966;11.038;2022-12-18T00:43:59;21.52;;;8.93;;
30380;SDS011;17169;50.966;11.038;2022-12-18T00:47:01;17.13;;;8.70;;
30380;SDS011;17169;50.966;11.038;2022-12-18T00:50:04;19.00;;;9.55;;
30380;SDS011;17169;50.966;11.038;2022-12-18T00:53:06;13.60;;;7.22;;
30380;SDS011;17169;50.966;11.038;2022-12-18T00:56:09;17.83;;;8.23;;
30380;SDS011;17169;50.966;11.038;2022-12-18T00:59:13;19.17;;;7.95;;
30380;SDS011;17169;50.966;11.038;2022-12-18T01:02:15;18.23;;;7.88;;
30380;SDS011;17169;50.966;11.038;2022-12-18T01:05:17;21.20;;;9.05;;
30380;SDS011;17169;50.966;11.038;2022-12-18T01:08:20;19.05;;;8.45;;
30380;SDS011;17169;50.966;11.038;2022-12-18T01:11:22;18.20;;;8.25;;
30380;SDS011;17169;50.966;11.038;2022-12-18T01:14:26;20.55;;;10.55;;
30380;SDS011;17169;50.966;11.038;2022-12-18T01:17:29;18.58;;;8.75;;
30380;SDS011;17169;50.966;11.038;2022-12-18T01:20:31;14.70;;;7.93;;
30380;SDS011;17169;50.966;11.038;2022-12-18T01:23:34;20.48;;;8.80;;
30380;SDS011;17169;50.966;11.038;2022-12-18T01:26:37;19.38;;;8.07;;
30380;SDS011;17169;50.966;11.038;2022-12-18T01:29:41;19.92;;;8.60;;
30380;SDS011;17169;50.966;11.038;2022-12-18T01:32:43;18.87;;;7.90;;
30380;SDS011;17169;50.966;11.038;2022-12-18T01:35:46;17.20;;;8.32;;
30380;SDS011;17169;50.966;11.038;2022-12-18T01:38:48;17.95;;;9.10;;
30380;SDS011;17169;50.966;11.038;2022-12-18T01:41:51;17.40;;;8.48;;
30380;SDS011;17169;50.966;11.038;2022-12-18T01:45:08;20.17;;;8.90;;
30380;SDS011;17169;50.966;11.038;2022-12-18T01:48:25;17.33;;;7.95;;
30380;SDS011;17169;50.966;11.038;2022-12-18T01:51:27;15.93;;;8.20;;
30380;SDS011;17169;50.966;11.038;2022-12-18T01:54:31;27.50;;;10.82;;
30380;SDS011;17169;50.966;11.038;2022-12-18T01:57:34;23.73;;;9.35;;
30380;SDS011;17169;50.966;11.038;2022-12-18T02:00:38;20.30;;;8.48;;
30380;SDS011;17169;50.966;11.038;2022-12-18T02:03:41;19.20;;;8.40;;
30380;SDS011;17169;50.966;11.038;2022-12-18T02:06:44;23.40;;;9.15;;
30380;SDS011;17169;50.966;11.038;2022-12-18T02:09:49;18.63;;;8.65;;
30380;SDS011;17169;50.966;11.038;2022-12-18T02:12:59;18.67;;;8.63;;
30380;SDS011;17169;50.966;11.038;2022-12-18T02:16:12;24.65;;;8.52;;
30380;SDS011;17169;50.966;11.038;2022-12-18T02:22:49;18.92;;;7.90;;
30380;SDS011;17169;50.966;11.038;2022-12-18T02:26:06;16.92;;;8.13;;
30380;SDS011;17169;50.966;11.038;2022-12-18T02:29:16;15.82;;;7.70;;
30380;SDS011;17169;50.966;11.038;2022-12-18T02:32:24;15.80;;;7.72;;
30380;SDS011;17169;50.966;11.038;2022-12-18T02:35:29;22.17;;;8.20;;
30380;SDS011;17169;50.966;11.038;2022-12-18T02:38:32;17.73;;;7.63;;
30380;SDS011;17169;50.966;11.038;2022-12-18T02:41:37;20.37;;;8.40;;
30380;SDS011;17169;50.966;11.038;2022-12-18T02:44:42;26.90;;;9.07;;
30380;SDS011;17169;50.966;11.038;2022-12-18T02:47:46;18.38;;;8.02;;
30380;SDS011;17169;50.966;11.038;2022-12-18T02:50:51;20.55;;;8.95;;
30380;SDS011;17169;50.966;11.038;2022-12-18T02:54:02;17.13;;;8.38;;
30380;SDS011;17169;50.966;11.038;2022-12-18T02:57:14;16.92;;;8.10;;
30380;SDS011;17169;50.966;11.038;2022-12-18T03:00:20;19.35;;;7.40;;
30380;SDS011;17169;50.966;11.038;2022-12-18T03:03:26;16.38;;;7.50;;
30380;SDS011;17169;50.966;11.038;2022-12-18T03:06:33;18.42;;;7.45;;
30380;SDS011;17169;50.966;11.038;2022-12-18T03:09:41;23.63;;;8.52;;
30380;SDS011;17169;50.966;11.038;2022-12-18T03:12:50;20.35;;;9.07;;
30380;SDS011;17169;50.966;11.038;2022-12-18T03:15:55;18.17;;;8.38;;
30380;SDS011;17169;50.966;11.038;2022-12-18T03:19:00;20.42;;;8.88;;
30380;SDS011;17169;50.966;11.038;2022-12-18T03:22:04;19.35;;;8.65;;
30380;SDS011;17169;50.966;11.038;2022-12-18T03:25:10;16.83;;;7.95;;
30380;SDS011;17169;50.966;11.038;2022-12-18T03:28:16;23.05;;;8.55;;
30380;SDS011;17169;50.966;11.038;2022-12-18T03:31:22;20.75;;;8.75;;
30380;SDS011;17169;50.966;11.038;2022-12-18T03:34:29;25.92;;;9.68;;
30380;SDS011;17169;50.966;11.038;2022-12-18T03:37:34;17.55;;;8.05;;
30380;SDS011;17169;50.966;11.038;2022-12-18T03:40:39;19.10;;;8.00;;
30380;SDS011;17169;50.966;11.038;2022-12-18T03:43:50;18.45;;;8.25;;
30380;SDS011;17169;50.966;11.038;2022-12-18T03:46:58;21.58;;;8.35;;
30380;SDS011;17169;50.966;11.038;2022-12-18T03:50:10;20.27;;;8.27;;
30380;SDS011;17169;50.966;11.038;2022-12-18T03:53:18;19.50;;;8.65;;
30380;SDS011;17169;50.966;11.038;2022-12-18T03:56:28;20.25;;;8.80;;
30380;SDS011;17169;50.966;11.038;2022-12-18T03:59:36;23.73;;;10.40;;
30380;SDS011;17169;50.966;11.038;2022-12-18T04:02:41;32.08;;;13.88;;
30380;SDS011;17169;50.966;11.038;2022-12-18T04:05:46;17.75;;;9.75;;
30380;SDS011;17169;50.966;11.038;2022-12-18T04:08:51;23.77;;;10.77;;
30380;SDS011;17169;50.966;11.038;2022-12-18T04:11:54;24.05;;;11.07;;
30380;SDS011;17169;50.966;11.038;2022-12-18T04:14:57;21.75;;;10.18;;
30380;SDS011;17169;50.966;11.038;2022-12-18T04:18:00;22.47;;;10.70;;
30380;SDS011;17169;50.966;11.038;2022-12-18T04:21:02;19.85;;;9.85;;
30380;SDS011;17169;50.966;11.038;2022-12-18T04:24:05;18.23;;;9.25;;
30380;SDS011;17169;50.966;11.038;2022-12-18T04:27:08;19.70;;;9.43;;
30380;SDS011;17169;50.966;11.038;2022-12-18T04:30:12;21.00;;;9.60;;
30380;SDS011;17169;50.966;11.038;2022-12-18T04:33:15;19.00;;;9.75;;
30380;SDS011;17169;50.966;11.038;2022-12-18T04:36:20;24.30;;;10.95;;
30380;SDS011;17169;50.966;11.038;2022-12-18T04:39:23;24.20;;;11.82;;
30380;SDS011;17169;50.966;11.038;2022-12-18T04:42:25;24.75;;;11.77;;
30380;SDS011;17169;50.966;11.038;2022-12-18T04:45:29;19.20;;;9.90;;
30380;SDS011;17169;50.966;11.038;2022-12-18T04:48:32;20.43;;;9.47;;
30380;SDS011;17169;50.966;11.038;2022-12-18T04:51:35;23.45;;;9.80;;
30380;SDS011;17169;50.966;11.038;2022-12-18T04:54:37;24.73;;;10.60;;
30380;SDS011;17169;50.966;11.038;2022-12-18T04:57:39;22.05;;;9.55;;
30380;SDS011;17169;50.966;11.038;2022-12-18T05:00:43;19.80;;;9.35;;
30380;SDS011;17169;50.966;11.038;2022-12-18T05:03:46;20.47;;;9.90;;
30380;SDS011;17169;50.966;11.038;2022-12-18T05:06:48;19.65;;;10.65;;
30380;SDS011;17169;50.966;11.038;2022-12-18T05:09:50;26.85;;;11.07;;
30380;SDS011;17169;50.966;11.038;2022-12-18T05:12:53;22.98;;;10.98;;
30380;SDS011;17169;50.966;11.038;2022-12-18T05:16:03;22.45;;;11.63;;
30380;SDS011;17169;50.966;11.038;2022-12-18T05:19:06;22.95;;;11.02;;
30380;SDS011;17169;50.966;11.038;2022-12-18T05:22:08;22.50;;;10.60;;
30380;SDS011;17169;50.966;11.038;2022-12-18T05:25:11;20.35;;;11.73;;
30380;SDS011;17169;50.966;11.038;2022-12-18T05:28:13;30.10;;;11.35;;
30380;SDS011;17169;50.966;11.038;2022-12-18T05:31:17;23.77;;;12.93;;
30380;SDS011;17169;50.966;11.038;2022-12-18T05:34:19;29.67;;;10.80;;
30380;SDS011;17169;50.966;11.038;2022-12-18T05:37:22;19.70;;;10.93;;
30380;SDS011;17169;50.966;11.038;2022-12-18T05:40:24;22.30;;;10.05;;
30380;SDS011;17169;50.966;11.038;2022-12-18T05:43:27;19.50;;;10.90;;
30380;SDS011;17169;50.966;11.038;2022-12-18T05:46:31;28.45;;;13.15;;
30380;SDS011;17169;50.966;11.038;2022-12-18T05:49:33;24.40;;;11.50;;
30380;SDS011;17169;50.966;11.038;2022-12-18T05:52:36;25.77;;;13.13;;
30380;SDS011;17169;50.966;11.038;2022-12-18T05:55:39;28.40;;;12.95;;
30380;SDS011;17169;50.966;11.038;2022-12-18T05:58:42;23.50;;;13.68;;
30380;SDS011;17169;50.966;11.038;2022-12-18T06:01:46;22.13;;;12.20;;
30380;SDS011;17169;50.966;11.038;2022-12-18T06:04:48;32.90;;;13.93;;
30380;SDS011;17169;50.966;11.038;2022-12-18T06:07:51;30.23;;;13.38;;
30380;SDS011;17169;50.966;11.038;2022-12-18T06:10:53;27.38;;;13.20;;
30380;SDS011;17169;50.966;11.038;2022-12-18T06:13:56;25.27;;;12.50;;
30380;SDS011;17169;50.966;11.038;2022-12-18T06:17:00;25.70;;;13.88;;
30380;SDS011;17169;50.966;11.038;2022-12-18T06:20:02;24.50;;;12.10;;
30380;SDS011;17169;50.966;11.038;2022-12-18T06:23:07;27.25;;;13.20;;
30380;SDS011;17169;50.966;11.038;2022-12-18T06:26:10;24.15;;;12.88;;
30380;SDS011;17169;50.966;11.038;2022-12-18T06:29:14;22.27;;;11.17;;
30380;SDS011;17169;50.966;11.038;2022-12-18T06:32:17;27.20;;;11.75;;
30380;SDS011;17169;50.966;11.038;2022-12-18T06:35:20;24.80;;;12.98;;
30380;SDS011;17169;50.966;11.038;2022-12-18T06:38:22;31.40;;;14.02;;
30380;SDS011;17169;50.966;11.038;2022-12-18T06:41:25;36.13;;;15.73;;
30380;SDS011;17169;50.966;11.038;2022-12-18T06:44:27;28.92;;;13.65;;
30380;SDS011;17169;50.966;11.038;2022-12-18T06:47:31;33.63;;;13.77;;
30380;SDS011;17169;50.966;11.038;2022-12-18T06:50:33;29.77;;;14.40;;
30380;SDS011;17169;50.966;11.038;2022-12-18T06:53:35;28.15;;;12.80;;
30380;SDS011;17169;50.966;11.038;2022-12-18T06:56:38;26.77;;;12.95;;
30380;SDS011;17169;50.966;11.038;2022-12-18T06:59:40;24.30;;;13.15;;
30380;SDS011;17169;50.966;11.038;2022-12-18T07:02:44;31.48;;;14.52;;
30380;SDS011;17169;50.966;11.038;2022-12-18T07:05:46;30.40;;;14.70;;
30380;SDS011;17169;50.966;11.038;2022-12-18T07:08:49;26.60;;;13.88;;
30380;SDS011;17169;50.966;11.038;2022-12-18T07:11:52;27.77;;;14.15;;
30380;SDS011;17169;50.966;11.038;2022-12-18T07:14:54;31.70;;;14.40;;
30380;SDS011;17169;50.966;11.038;2022-12-18T07:17:58;28.25;;;14.43;;
30380;SDS011;17169;50.966;11.038;2022-12-18T07:21:02;26.60;;;15.23;;
30380;SDS011;17169;50.966;11.038;2022-12-18T07:24:06;36.45;;;15.82;;
30380;SDS011;17169;50.966;11.038;2022-12-18T07:27:09;29.40;;;16.77;;
30380;SDS011;17169;50.966;11.038;2022-12-18T07:30:11;31.15;;;16.27;;
30380;SDS011;17169;50.966;11.038;2022-12-18T07:33:15;33.42;;;16.70;;
30380;SDS011;17169;50.966;11.038;2022-12-18T07:36:18;33.13;;;16.45;;
30380;SDS011;17169;50.966;11.038;2022-12-18T07:39:24;35.00;;;15.35;;
30380;SDS011;17169;50.966;11.038;2022-12-18T07:42:26;26.52;;;15.35;;
30380;SDS011;17169;50.966;11.038;2022-12-18T07:45:35;29.15;;;15.48;;
30380;SDS011;17169;50.966;11.038;2022-12-18T07:48:39;32.75;;;16.42;;
30380;SDS011;17169;50.966;11.038;2022-12-18T07:51:41;32.10;;;17.58;;
30380;SDS011;17169;50.966;11.038;2022-12-18T07:54:46;36.53;;;16.67;;
30380;SDS011;17169;50.966;11.038;2022-12-18T07:57:49;33.20;;;17.67;;
30380;SDS011;17169;50.966;11.038;2022-12-18T08:00:52;33.58;;;16.02;;
30380;SDS011;17169;50.966;11.038;2022-12-18T08:03:58;31.60;;;16.42;;
30380;SDS011;17169;50.966;11.038;2022-12-18T08:07:01;40.60;;;16.73;;
30380;SDS011;17169;50.966;11.038;2022-12-18T08:10:04;29.33;;;16.30;;
30380;SDS011;17169;50.966;11.038;2022-12-18T08:13:07;33.22;;;17.58;;
30380;SDS011;17169;50.966;11.038;2022-12-18T08:16:10;32.95;;;17.25;;
30380;SDS011;17169;50.966;11.038;2022-12-18T08:19:13;38.10;;;18.05;;
30380;SDS011;17169;50.966;11.038;2022-12-18T08:22:16;57.17;;;26.03;;
30380;SDS011;17169;50.966;11.038;2022-12-18T08:25:18;38.88;;;20.85;;
30380;SDS011;17169;50.966;11.038;2022-12-18T08:28:20;38.58;;;18.88;;
30380;SDS011;17169;50.966;11.038;2022-12-18T08:31:23;38.90;;;19.75;;
30380;SDS011;17169;50.966;11.038;2022-12-18T08:34:28;34.50;;;19.05;;
30380;SDS011;17169;50.966;11.038;2022-12-18T08:37:31;33.70;;;18.63;;
30380;SDS011;17169;50.966;11.038;2022-12-18T08:40:33;37.78;;;17.75;;
30380;SDS011;17169;50.966;11.038;2022-12-18T08:43:36;34.25;;;17.45;;
30380;SDS011;17169;50.966;11.038;2022-12-18T08:46:56;39.28;;;19.70;;
30380;SDS011;17169;50.966;11.038;2022-12-18T08:49:59;39.88;;;20.02;;
30380;SDS011;17169;50.966;11.038;2022-12-18T08:53:02;35.97;;;19.10;;
30380;SDS011;17169;50.966;11.038;2022-12-18T08:56:05;32.75;;;17.95;;
30380;SDS011;17169;50.966;11.038;2022-12-18T08:59:08;38.15;;;19.08;;
30380;SDS011;17169;50.966;11.038;2022-12-18T09:02:10;33.50;;;18.23;;
30380;SDS011;17169;50.966;11.038;2022-12-18T09:05:14;40.08;;;19.88;;
30380;SDS011;17169;50.966;11.038;2022-12-18T09:08:17;39.95;;;20.65;;
30380;SDS011;17169;50.966;11.038;2022-12-18T09:11:20;41.40;;;20.60;;
30380;SDS011;17169;50.966;11.038;2022-12-18T09:14:24;38.20;;;19.48;;
30380;SDS011;17169;50.966;11.038;2022-12-18T09:17:26;37.88;;;19.42;;
30380;SDS011;17169;50.966;11.038;2022-12-18T09:20:30;45.47;;;20.17;;
30380;SDS011;17169;50.966;11.038;2022-12-18T09:23:32;47.87;;;18.83;;
30380;SDS011;17169;50.966;11.038;2022-12-18T09:26:34;37.60;;;19.50;;
30380;SDS011;17169;50.966;11.038;2022-12-18T09:29:37;39.90;;;19.55;;
30380;SDS011;17169;50.966;11.038;2022-12-18T09:32:39;39.95;;;18.75;;
30380;SDS011;17169;50.966;11.038;2022-12-18T09:35:44;38.75;;;19.90;;
30380;SDS011;17169;50.966;11.038;2022-12-18T09:38:47;35.30;;;18.63;;
30380;SDS011;17169;50.966;11.038;2022-12-18T09:41:50;44.28;;;20.05;;
30380;SDS011;17169;50.966;11.038;2022-12-18T09:44:54;36.88;;;19.73;;
30380;SDS011;17169;50.966;11.038;2022-12-18T09:47:57;39.33;;;19.88;;
30380;SDS011;17169;50.966;11.038;2022-12-18T09:51:05;41.55;;;21.52;;
30380;SDS011;17169;50.966;11.038;2022-12-18T09:54:16;42.22;;;20.83;;
30380;SDS011;17169;50.966;11.038;2022-12-18T09:57:23;43.22;;;20.40;;
30380;SDS011;17169;50.966;11.038;2022-12-18T10:00:27;34.55;;;18.85;;
30380;SDS011;17169;50.966;11.038;2022-12-18T10:03:29;39.53;;;20.30;;
30380;SDS011;17169;50.966;11.038;2022-12-18T10:06:35;37.50;;;20.03;;
30380;SDS011;17169;50.966;11.038;2022-12-18T10:09:45;39.95;;;21.30;;
30380;SDS011;17169;50.966;11.038;2022-12-18T10:12:56;38.80;;;19.05;;
30380;SDS011;17169;50.966;11.038;2022-12-18T10:16:08;39.03;;;18.90;;
30380;SDS011;17169;50.966;11.038;2022-12-18T10:19:18;40.75;;;20.88;;
30380;SDS011;17169;50.966;11.038;2022-12-18T10:22:35;37.55;;;17.67;;
30380;SDS011;17169;50.966;11.038;2022-12-18T10:25:51;33.92;;;17.90;;
30380;SDS011;17169;50.966;11.038;2022-12-18T10:28:57;35.45;;;17.55;;
30380;SDS011;17169;50.966;11.038;2022-12-18T10:32:01;33.80;;;17.85;;
30380;SDS011;17169;50.966;11.038;2022-12-18T10:35:04;42.22;;;19.30;;
30380;SDS011;17169;50.966;11.038;2022-12-18T10:38:25;40.58;;;18.98;;
30380;SDS011;17169;50.966;11.038;2022-12-18T10:41:29;41.67;;;19.85;;
30380;SDS011;17169;50.966;11.038;2022-12-18T10:44:32;39.90;;;18.90;;
30380;SDS011;17169;50.966;11.038;2022-12-18T10:47:35;44.40;;;20.48;;
30380;SDS011;17169;50.966;11.038;2022-12-18T10:50:38;38.95;;;18.92;;
30380;SDS011;17169;50.966;11.038;2022-12-18T10:53:42;39.78;;;19.27;;
30380;SDS011;17169;50.966;11.038;2022-12-18T10:57:06;36.35;;;19.05;;
30380;SDS011;17169;50.966;11.038;2022-12-18T11:00:21;39.30;;;19.33;;
30380;SDS011;17169;50.966;11.038;2022-12-18T11:03:29;40.80;;;18.63;;
30380;SDS011;17169;50.966;11.038;2022-12-18T11:06:36;41.47;;;20.00;;
30380;SDS011;17169;50.966;11.038;2022-12-18T11:10:03;41.10;;;19.70;;
30380;SDS011;17169;50.966;11.038;2022-12-18T11:13:10;43.92;;;21.15;;
30380;SDS011;17169;50.966;11.038;2022-12-18T11:16:17;45.80;;;21.05;;
30380;SDS011;17169;50.966;11.038;2022-12-18T11:19:21;48.80;;;22.65;;
30380;SDS011;17169;50.966;11.038;2022-12-18T11:22:30;46.47;;;22.88;;
30380;SDS011;17169;50.966;11.038;2022-12-18T11:25:36;41.53;;;19.50;;
30380;SDS011;17169;50.966;11.038;2022-12-18T11:28:39;37.13;;;20.53;;
30380;SDS011;17169;50.966;11.038;2022-12-18T11:31:45;37.17;;;19.67;;
30380;SDS011;17169;50.966;11.038;2022-12-18T11:34:48;41.42;;;19.67;;
30380;SDS011;17169;50.966;11.038;2022-12-18T11:37:55;35.42;;;16.83;;
30380;SDS011;17169;50.966;11.038;2022-12-18T11:41:07;37.95;;;19.35;;
30380;SDS011;17169;50.966;11.038;2022-12-18T11:44:22;40.38;;;19.48;;
30380;SDS011;17169;50.966;11.038;2022-12-18T11:47:28;38.55;;;18.73;;
30380;SDS011;17169;50.966;11.038;2022-12-18T11:50:41;38.88;;;18.90;;
30380;SDS011;17169;50.966;11.038;2022-12-18T11:53:51;35.05;;;17.92;;
30380;SDS011;17169;50.966;11.038;2022-12-18T11:56:55;43.53;;;20.23;;
30380;SDS011;17169;50.966;11.038;2022-12-18T12:00:09;35.72;;;17.85;;
30380;SDS011;17169;50.966;11.038;2022-12-18T12:03:21;39.70;;;19.58;;
30380;SDS011;17169;50.966;11.038;2022-12-18T12:06:31;37.85;;;19.88;;
30380;SDS011;17169;50.966;11.038;2022-12-18T12:09:43;37.30;;;18.58;;
30380;SDS011;17169;50.966;11.038;2022-12-18T12:12:58;40.08;;;20.33;;
30380;SDS011;17169;50.966;11.038;2022-12-18T12:16:15;36.35;;;19.83;;
30380;SDS011;17169;50.966;11.038;2022-12-18T12:19:30;37.25;;;17.80;;
30380;SDS011;17169;50.966;11.038;2022-12-18T12:22:43;36.95;;;19.58;;
30380;SDS011;17169;50.966;11.038;2022-12-18T12:25:56;41.17;;;20.17;;
30380;SDS011;17169;50.966;11.038;2022-12-18T12:29:09;40.10;;;19.90;;
30380;SDS011;17169;50.966;11.038;2022-12-18T12:32:26;36.20;;;18.30;;
30380;SDS011;17169;50.966;11.038;2022-12-18T12:35:52;35.05;;;19.85;;
30380;SDS011;17169;50.966;11.038;2022-12-18T12:50:12;39.97;;;20.38;;
30380;SDS011;17169;50.966;11.038;2022-12-18T12:53:21;39.88;;;19.40;;
30380;SDS011;17169;50.966;11.038;2022-12-18T12:56:30;39.20;;;19.55;;
30380;SDS011;17169;50.966;11.038;2022-12-18T12:59:40;37.45;;;19.02;;
30380;SDS011;17169;50.966;11.038;2022-12-18T13:02:51;39.38;;;20.08;;
30380;SDS011;17169;50.966;11.038;2022-12-18T13:06:02;37.90;;;18.80;;
30380;SDS011;17169;50.966;11.038;2022-12-18T13:09:11;36.70;;;19.23;;
30380;SDS011;17169;50.966;11.038;2022-12-18T13:12:13;36.92;;;19.65;;
30380;SDS011;17169;50.966;11.038;2022-12-18T13:15:39;33.45;;;17.70;;
30380;SDS011;17169;50.966;11.038;2022-12-18T13:18:47;39.80;;;19.67;;
30380;SDS011;17169;50.966;11.038;2022-12-18T13:21:55;35.53;;;18.98;;
30380;SDS011;17169;50.966;11.038;2022-12-18T13:24:58;35.28;;;18.92;;
30380;SDS011;17169;50.966;11.038;2022-12-18T13:28:05;38.50;;;19.88;;
30380;SDS011;17169;50.966;11.038;2022-12-18T13:31:10;33.05;;;17.55;;
30380;SDS011;17169;50.966;11.038;2022-12-18T13:34:15;38.13;;;18.75;;
30380;SDS011;17169;50.966;11.038;2022-12-18T13:40:54;33.17;;;17.17;;
30380;SDS011;17169;50.966;11.038;2022-12-18T13:44:10;36.83;;;17.58;;
30380;SDS011;17169;50.966;11.038;2022-12-18T13:50:26;37.60;;;18.80;;
30380;SDS011;17169;50.966;11.038;2022-12-18T13:53:32;37.78;;;18.30;;
30380;SDS011;17169;50.966;11.038;2022-12-18T13:56:42;37.83;;;19.05;;
30380;SDS011;17169;50.966;11.038;2022-12-18T13:59:45;37.53;;;19.20;;
30380;SDS011;17169;50.966;11.038;2022-12-18T14:02:48;33.17;;;17.60;;
30380;SDS011;17169;50.966;11.038;2022-12-18T14:05:59;40.67;;;17.73;;
30380;SDS011;17169;50.966;11.038;2022-12-18T14:09:05;35.72;;;18.17;;
30380;SDS011;17169;50.966;11.038;2022-12-18T14:12:12;38.40;;;20.70;;
30380;SDS011;17169;50.966;11.038;2022-12-18T14:15:36;40.67;;;18.42;;
30380;SDS011;17169;50.966;11.038;2022-12-18T14:18:44;34.92;;;19.30;;
30380;SDS011;17169;50.966;11.038;2022-12-18T14:21:49;36.25;;;19.42;;
30380;SDS011;17169;50.966;11.038;2022-12-18T14:25:10;40.55;;;20.58;;
30380;SDS011;17169;50.966;11.038;2022-12-18T14:28:17;33.97;;;18.13;;
30380;SDS011;17169;50.966;11.038;2022-12-18T14:31:20;37.20;;;19.15;;
30380;SDS011;17169;50.966;11.038;2022-12-18T14:34:25;35.60;;;18.17;;
30380;SDS011;17169;50.966;11.038;2022-12-18T14:37:28;39.60;;;18.80;;
30380;SDS011;17169;50.966;11.038;2022-12-18T14:40:33;33.80;;;18.67;;
30380;SDS011;17169;50.966;11.038;2022-12-18T14:43:36;40.40;;;19.98;;
30380;SDS011;17169;50.966;11.038;2022-12-18T14:46:39;40.97;;;20.27;;
30380;SDS011;17169;50.966;11.038;2022-12-18T14:49:44;36.80;;;20.65;;
30380;SDS011;17169;50.966;11.038;2022-12-18T14:52:47;40.13;;;20.52;;
30380;SDS011;17169;50.966;11.038;2022-12-18T14:55:51;43.38;;;19.77;;
30380;SDS011;17169;50.966;11.038;2022-12-18T14:58:54;37.40;;;19.02;;
30380;SDS011;17169;50.966;11.038;2022-12-18T15:01:59;36.65;;;19.38;;
30380;SDS011;17169;50.966;11.038;2022-12-18T15:05:14;36.78;;;18.98;;
30380;SDS011;17169;50.966;11.038;2022-12-18T15:08:27;45.25;;;19.67;;
30380;SDS011;17169;50.966;11.038;2022-12-18T15:11:44;36.95;;;18.92;;
30380;SDS011;17169;50.966;11.038;2022-12-18T15:14:47;36.05;;;19.63;;
30380;SDS011;17169;50.966;11.038;2022-12-18T15:17:56;40.20;;;20.40;;
30380;SDS011;17169;50.966;11.038;2022-12-18T15:20:59;44.92;;;22.35;;
30380;SDS011;17169;50.966;11.038;2022-12-18T15:24:15;48.70;;;24.02;;
30380;SDS011;17169;50.966;11.038;2022-12-18T15:27:27;44.33;;;21.05;;
30380;SDS011;17169;50.966;11.038;2022-12-18T15:30:32;36.63;;;19.33;;
30380;SDS011;17169;50.966;11.038;2022-12-18T15:33:34;39.65;;;18.92;;
30380;SDS011;17169;50.966;11.038;2022-12-18T15:36:38;40.08;;;19.40;;
30380;SDS011;17169;50.966;11.038;2022-12-18T15:39:40;37.25;;;19.52;;
30380;SDS011;17169;50.966;11.038;2022-12-18T15:42:44;40.35;;;20.73;;
30380;SDS011;17169;50.966;11.038;2022-12-18T15:46:06;43.45;;;21.10;;
30380;SDS011;17169;50.966;11.038;2022-12-18T15:49:12;40.20;;;19.83;;
30380;SDS011;17169;50.966;11.038;2022-12-18T15:52:14;44.25;;;21.77;;
30380;SDS011;17169;50.966;11.038;2022-12-18T15:55:26;40.45;;;20.33;;
30380;SDS011;17169;50.966;11.038;2022-12-18T15:58:47;40.15;;;20.00;;
30380;SDS011;17169;50.966;11.038;2022-12-18T16:01:50;53.70;;;22.63;;
30380;SDS011;17169;50.966;11.038;2022-12-18T16:04:54;37.30;;;19.58;;
30380;SDS011;17169;50.966;11.038;2022-12-18T16:07:56;43.15;;;21.95;;
30380;SDS011;17169;50.966;11.038;2022-12-18T16:10:59;44.45;;;21.30;;
30380;SDS011;17169;50.966;11.038;2022-12-18T16:14:03;47.47;;;21.60;;
30380;SDS011;17169;50.966;11.038;2022-12-18T16:17:15;50.05;;;23.00;;
30380;SDS011;17169;50.966;11.038;2022-12-18T16:20:18;47.50;;;23.60;;
30380;SDS011;17169;50.966;11.038;2022-12-18T16:23:22;56.60;;;25.67;;
30380;SDS011;17169;50.966;11.038;2022-12-18T16:26:24;48.13;;;22.73;;
30380;SDS011;17169;50.966;11.038;2022-12-18T16:29:28;44.95;;;22.60;;
30380;SDS011;17169;50.966;11.038;2022-12-18T16:32:31;47.30;;;23.83;;
30380;SDS011;17169;50.966;11.038;2022-12-18T16:35:33;54.03;;;26.45;;
30380;SDS011;17169;50.966;11.038;2022-12-18T16:38:37;54.73;;;26.27;;
30380;SDS011;17169;50.966;11.038;2022-12-18T16:41:39;62.38;;;25.40;;
30380;SDS011;17169;50.966;11.038;2022-12-18T16:44:43;58.13;;;26.70;;
30380;SDS011;17169;50.966;11.038;2022-12-18T16:47:47;56.15;;;27.40;;
30380;SDS011;17169;50.966;11.038;2022-12-18T16:50:49;48.38;;;24.70;;
30380;SDS011;17169;50.966;11.038;2022-12-18T16:54:00;53.95;;;23.77;;
30380;SDS011;17169;50.966;11.038;2022-12-18T16:57:03;50.75;;;23.33;;
30380;SDS011;17169;50.966;11.038;2022-12-18T17:00:08;48.63;;;22.85;;
30380;SDS011;17169;50.966;11.038;2022-12-18T17:03:11;48.95;;;23.50;;
30380;SDS011;17169;50.966;11.038;2022-12-18T17:06:14;46.92;;;24.00;;
30380;SDS011;17169;50.966;11.038;2022-12-18T17:09:17;51.45;;;25.23;;
30380;SDS011;17169;50.966;11.038;2022-12-18T17:12:22;51.95;;;25.88;;
30380;SDS011;17169;50.966;11.038;2022-12-18T17:15:26;58.22;;;25.95;;
30380;SDS011;17169;50.966;11.038;2022-12-18T17:18:28;55.78;;;24.00;;
30380;SDS011;17169;50.966;11.038;2022-12-18T17:21:30;50.10;;;24.73;;
30380;SDS011;17169;50.966;11.038;2022-12-18T17:24:33;41.97;;;23.00;;
30380;SDS011;17169;50.966;11.038;2022-12-18T17:27:35;45.85;;;23.70;;
30380;SDS011;17169;50.966;11.038;2022-12-18T17:30:39;43.85;;;23.63;;
30380;SDS011;17169;50.966;11.038;2022-12-18T17:33:43;42.13;;;22.88;;
30380;SDS011;17169;50.966;11.038;2022-12-18T17:36:45;55.10;;;24.65;;
30380;SDS011;17169;50.966;11.038;2022-12-18T17:39:47;48.75;;;23.38;;
30380;SDS011;17169;50.966;11.038;2022-12-18T17:42:51;50.40;;;23.42;;
30380;SDS011;17169;50.966;11.038;2022-12-18T17:45:55;50.25;;;24.23;;
30380;SDS011;17169;50.966;11.038;2022-12-18T17:48:57;48.73;;;22.27;;
30380;SDS011;17169;50.966;11.038;2022-12-18T17:52:00;44.88;;;23.10;;
30380;SDS011;17169;50.966;11.038;2022-12-18T17:55:03;45.97;;;23.83;;
30380;SDS011;17169;50.966;11.038;2022-12-18T17:58:06;52.25;;;24.80;;
30380;SDS011;17169;50.966;11.038;2022-12-18T18:01:11;49.03;;;24.38;;
30380;SDS011;17169;50.966;11.038;2022-12-18T18:04:15;52.25;;;25.02;;
30380;SDS011;17169;50.966;11.038;2022-12-18T18:07:17;53.05;;;25.58;;
30380;SDS011;17169;50.966;11.038;2022-12-18T18:10:20;53.67;;;25.35;;
30380;SDS011;17169;50.966;11.038;2022-12-18T18:13:23;52.28;;;24.15;;